PADL/DLG METAR and TAF weather

Enter ICAO airport designator
Station Type Date Time Source
PADL METAR 2019/11/18 09:14 UTC NOAA

PADL 180914Z 05007KT 10SM FEW011 M13/M14 A2971 RMK AO2 FZRANO


Station Type Date Time Source
PADL Decoded METAR 2019/11/18 09:14 UTC NOAA

Dillingham, Dillingham Airport, AK, United States (PADL) 59-03N 158-31W 29M
Nov 18, 2019 - 04:14 AM EST / 2019.11.18 0914 UTC
Wind: from the NE (050 degrees) at 8 MPH (7 KT):0
Visibility: 10 mile(s):0
Sky conditions: mostly clear
Temperature: 8 F (-13 C)
Windchill: -4 F (-20 C):1
Dew Point: 6 F (-14 C)
Relative Humidity: 92%
Pressure (altimeter): 29.71 in. Hg (1006 hPa)
ob: PADL 180914Z 05007KT 10SM FEW011 M13/M14 A2971 RMK AO2 FZRANO
cycle: 9

Station Type Date Time Source
PADL TAF 2019/11/18 06:24 UTC NOAA

TAF PADL 180523Z 1806/1906 VRB03KT P6SM -SN OVC012
FM181100 34012KT P6SM OVC025
FM181800 35016G23KT P6SM OVC015

Example: see airport list